createdAt,value
2022-10-19T00:01:22.419Z,9.90
2022-10-19T00:05:04.528Z,10.25
2022-10-19T00:08:46.647Z,8.13
2022-10-19T00:12:28.625Z,4.68
2022-10-19T00:16:13.489Z,9.75
2022-10-19T00:19:55.477Z,8.60
2022-10-19T00:23:37.647Z,7.45
2022-10-19T00:27:19.515Z,13.13
2022-10-19T00:31:09.723Z,7.90
2022-10-19T00:34:51.587Z,6.13
2022-10-19T00:38:33.446Z,11.82
2022-10-19T00:42:15.303Z,7.75
2022-10-19T00:45:57.115Z,7.90
2022-10-19T00:49:43.623Z,9.50
2022-10-19T00:53:28.610Z,5.50
2022-10-19T00:57:11.863Z,6.25
2022-10-19T01:00:53.724Z,5.10
2022-10-19T01:04:38.772Z,7.55
2022-10-19T01:08:20.715Z,8.50
2022-10-19T01:12:16.231Z,8.55
2022-10-19T01:16:39.144Z,6.32
2022-10-19T01:20:32.731Z,8.32
2022-10-19T01:24:37.117Z,9.88
2022-10-19T01:28:40.297Z,10.55
2022-10-19T01:32:30.719Z,9.73
2022-10-19T01:36:30.607Z,6.80
2022-10-19T01:40:22.445Z,9.43
2022-10-19T01:44:18.917Z,15.52
2022-10-19T01:48:22.040Z,12.48
2022-10-19T01:52:06.480Z,10.57
2022-10-19T01:55:51.995Z,11.38
2022-10-19T01:59:34.922Z,9.27
2022-10-19T02:03:18.260Z,12.60
2022-10-19T02:07:02.776Z,6.97
2022-10-19T02:10:45.827Z,10.27
2022-10-19T02:14:32.960Z,8.15
2022-10-19T02:18:19.844Z,9.50
2022-10-19T02:25:43.493Z,14.40
2022-10-19T02:29:25.412Z,10.73
2022-10-19T02:33:08.128Z,11.70
2022-10-19T02:36:50.106Z,8.60
2022-10-19T02:40:38.156Z,8.98
2022-10-19T02:44:27.219Z,8.52
2022-10-19T02:48:13.714Z,11.40
2022-10-19T02:51:59.940Z,11.77
2022-10-19T02:55:42.494Z,10.88
2022-10-19T02:59:25.366Z,9.50
2022-10-19T03:03:07.259Z,9.70
2022-10-19T03:06:49.093Z,6.57
2022-10-19T03:10:30.954Z,12.45
2022-10-19T03:14:12.753Z,7.88
2022-10-19T03:17:54.872Z,7.30
2022-10-19T03:21:36.674Z,9.77
2022-10-19T03:25:18.803Z,8.77
2022-10-19T03:29:00.654Z,11.18
2022-10-19T03:32:42.535Z,8.02
2022-10-19T03:36:25.621Z,6.80
2022-10-19T03:40:08.223Z,11.05
2022-10-19T03:43:50.295Z,9.50
2022-10-19T03:47:32.463Z,9.48
2022-10-19T03:51:36.364Z,6.65
2022-10-19T03:55:18.291Z,10.05
2022-10-19T03:59:01.358Z,10.60
2022-10-19T04:02:43.147Z,9.68
2022-10-19T04:06:31.254Z,7.22
2022-10-19T04:10:13.058Z,8.25
2022-10-19T04:13:58.582Z,16.00
2022-10-19T04:17:40.502Z,10.90
2022-10-19T04:21:33.210Z,9.43
2022-10-19T04:25:17.050Z,12.88
2022-10-19T04:29:04.310Z,9.18
2022-10-19T04:32:51.867Z,13.10
2022-10-19T04:36:34.525Z,10.43
2022-10-19T04:40:17.321Z,8.75
2022-10-19T04:44:02.538Z,7.30
2022-10-19T04:47:48.723Z,10.15
2022-10-19T04:51:30.720Z,12.37
2022-10-19T04:55:12.576Z,5.07
2022-10-19T04:58:58.796Z,12.55
2022-10-19T05:02:44.932Z,8.67
2022-10-19T05:06:27.118Z,10.27
2022-10-19T05:10:10.388Z,8.35
2022-10-19T05:13:52.204Z,6.55
2022-10-19T05:17:34.225Z,7.80
2022-10-19T05:21:16.299Z,10.18
2022-10-19T05:24:59.633Z,8.88
2022-10-19T05:28:41.663Z,9.10
2022-10-19T05:32:23.678Z,9.20
2022-10-19T05:36:26.389Z,8.13
2022-10-19T05:40:08.984Z,9.40
2022-10-19T05:43:59.331Z,15.00
2022-10-19T05:47:41.223Z,9.60
2022-10-19T05:51:24.647Z,9.35
2022-10-19T05:55:07.165Z,15.15
2022-10-19T05:58:49.980Z,9.63
2022-10-19T06:02:32.205Z,8.32
2022-10-19T06:06:14.139Z,11.32
2022-10-19T06:09:55.989Z,11.85
2022-10-19T06:13:39.582Z,9.15
2022-10-19T06:17:22.651Z,13.40
2022-10-19T06:21:07.074Z,9.88
2022-10-19T06:24:49.010Z,10.00
2022-10-19T06:28:30.900Z,7.72
2022-10-19T06:32:12.774Z,12.43
2022-10-19T06:35:54.818Z,11.07
2022-10-19T06:39:36.686Z,12.65
2022-10-19T06:43:18.727Z,10.63
2022-10-19T06:47:00.587Z,11.90
2022-10-19T06:50:42.471Z,9.65
2022-10-19T06:54:25.741Z,12.00
2022-10-19T06:58:07.546Z,10.05
2022-10-19T07:01:49.472Z,10.18
2022-10-19T07:05:31.287Z,10.65
2022-10-19T07:17:13.130Z,15.07
2022-10-19T07:20:58.443Z,14.20
2022-10-19T07:24:40.259Z,11.90
2022-10-19T07:28:22.632Z,14.35
2022-10-19T07:32:04.585Z,11.68
2022-10-19T07:35:46.549Z,10.93
2022-10-19T07:39:28.668Z,11.50
2022-10-19T07:43:10.750Z,11.45
2022-10-19T07:46:52.567Z,14.88
2022-10-19T07:50:34.380Z,14.00
2022-10-19T07:54:16.268Z,13.23
2022-10-19T07:58:01.530Z,11.80
2022-10-19T08:01:44.927Z,15.00
2022-10-19T08:05:26.873Z,14.88
2022-10-19T08:09:08.867Z,11.75
2022-10-19T08:12:50.759Z,16.17
2022-10-19T08:16:37.435Z,12.50
2022-10-19T08:20:19.418Z,12.07
2022-10-19T08:24:01.292Z,12.55
2022-10-19T08:27:43.128Z,12.27
2022-10-19T08:31:25.000Z,15.32
2022-10-19T08:35:10.062Z,12.07
2022-10-19T08:38:53.075Z,7.47
2022-10-19T08:42:57.157Z,12.50
2022-10-19T08:46:53.488Z,9.13
2022-10-19T08:50:41.343Z,12.73
2022-10-19T08:54:24.762Z,9.40
2022-10-19T08:58:38.111Z,9.55
2022-10-19T09:02:53.571Z,10.68
2022-10-19T09:06:57.529Z,8.18
2022-10-19T09:10:42.214Z,9.93
2022-10-19T09:14:59.171Z,11.55
2022-10-19T09:18:42.431Z,9.32
2022-10-19T09:22:32.711Z,8.48
2022-10-19T09:26:20.392Z,11.15
2022-10-19T09:30:05.959Z,11.10
2022-10-19T09:33:55.607Z,12.07
2022-10-19T09:37:42.477Z,7.40
2022-10-19T09:41:25.264Z,6.78
2022-10-19T09:45:25.159Z,7.85
2022-10-19T09:49:07.035Z,7.07
2022-10-19T09:52:57.378Z,11.00
2022-10-19T09:56:40.754Z,8.00
2022-10-19T10:00:25.785Z,7.88
2022-10-19T10:04:09.712Z,10.45
2022-10-19T10:07:55.177Z,7.50
2022-10-19T10:11:39.497Z,5.00
2022-10-19T10:15:35.078Z,9.35
2022-10-19T10:19:18.947Z,9.82
2022-10-19T10:23:06.126Z,5.28
2022-10-19T10:27:02.327Z,9.57
2022-10-19T10:30:46.751Z,6.70
2022-10-19T10:34:45.663Z,9.02
2022-10-19T10:38:41.511Z,9.45
2022-10-19T10:42:30.864Z,7.95
2022-10-19T10:46:20.781Z,8.43
2022-10-19T10:50:06.559Z,7.50
2022-10-19T10:53:48.735Z,9.48
2022-10-19T10:57:44.863Z,8.48
2022-10-19T11:01:35.512Z,8.93
2022-10-19T11:05:38.926Z,7.47
2022-10-19T11:09:31.356Z,5.93
2022-10-19T11:13:35.969Z,4.88
2022-10-19T11:17:30.837Z,7.45
2022-10-19T11:21:31.121Z,11.77
2022-10-19T11:25:25.159Z,8.85
2022-10-19T11:29:24.947Z,7.07
2022-10-19T11:33:26.990Z,6.00
2022-10-19T11:37:23.977Z,3.78
2022-10-19T11:41:17.855Z,6.45
2022-10-19T11:45:03.495Z,5.83
2022-10-19T11:48:54.745Z,7.50
2022-10-19T11:52:53.484Z,6.90
2022-10-19T11:57:02.871Z,6.18
2022-10-19T12:01:23.613Z,5.57
2022-10-19T12:05:11.411Z,4.63
2022-10-19T12:09:05.113Z,23.58
2022-10-19T12:12:51.554Z,4.57
2022-10-19T12:16:41.138Z,7.82
2022-10-19T12:20:34.928Z,5.32
2022-10-19T12:24:23.997Z,8.60
2022-10-19T12:28:05.942Z,4.57
2022-10-19T12:31:49.069Z,5.13
2022-10-19T12:35:48.099Z,7.30
2022-10-19T12:39:35.561Z,8.25
2022-10-19T12:43:31.948Z,4.57
2022-10-19T12:47:20.040Z,5.85
2022-10-19T12:51:07.443Z,6.78
2022-10-19T12:54:49.267Z,7.10
2022-10-19T12:58:55.065Z,7.72
2022-10-19T13:02:40.158Z,7.32
2022-10-19T13:06:25.047Z,4.47
2022-10-19T13:10:18.315Z,5.03
2022-10-19T13:14:19.886Z,8.30
2022-10-19T13:18:40.452Z,7.78
2022-10-19T13:22:27.812Z,9.55
2022-10-19T13:26:39.183Z,4.85
2022-10-19T13:30:39.068Z,5.80
2022-10-19T13:34:24.159Z,5.82
2022-10-19T13:38:12.049Z,4.50
2022-10-19T13:41:56.410Z,6.45
2022-10-19T13:45:41.268Z,5.70
2022-10-19T13:49:32.772Z,6.10
2022-10-19T13:53:44.135Z,4.40
2022-10-19T13:57:50.057Z,5.60
2022-10-19T14:02:13.123Z,5.95
2022-10-19T14:06:03.194Z,6.28
2022-10-19T14:10:02.163Z,6.57
2022-10-19T14:13:44.397Z,5.50
2022-10-19T14:17:30.243Z,6.22
2022-10-19T14:21:12.196Z,4.60
2022-10-19T14:25:05.715Z,3.95
2022-10-19T14:28:55.146Z,6.20
2022-10-19T14:32:37.005Z,4.18
2022-10-19T14:36:21.735Z,3.60
2022-10-19T14:40:31.700Z,4.55
2022-10-19T14:44:42.496Z,4.95
2022-10-19T14:48:24.321Z,4.57
2022-10-19T14:52:06.323Z,4.22
2022-10-19T14:55:50.747Z,6.72
2022-10-19T14:59:47.831Z,6.75
2022-10-19T15:03:31.029Z,7.70
2022-10-19T15:07:43.207Z,8.25
2022-10-19T15:11:39.860Z,4.43
2022-10-19T15:15:31.134Z,5.32
2022-10-19T15:19:23.900Z,8.48
2022-10-19T15:23:56.869Z,6.63
2022-10-19T15:27:46.094Z,7.50
2022-10-19T15:31:29.347Z,8.65
2022-10-19T15:35:27.317Z,7.65
2022-10-19T15:39:33.081Z,6.28
2022-10-19T15:43:33.041Z,7.53
2022-10-19T15:47:14.869Z,8.38
2022-10-19T15:50:57.875Z,7.95
2022-10-19T15:54:39.714Z,5.88
2022-10-19T15:58:21.676Z,8.23
2022-10-19T16:02:13.501Z,6.65
2022-10-19T16:05:55.432Z,6.65
2022-10-19T16:09:37.319Z,7.53
2022-10-19T16:13:19.117Z,4.50
2022-10-19T16:17:00.973Z,6.45
2022-10-19T16:20:42.879Z,8.30
2022-10-19T16:24:24.753Z,8.13
2022-10-19T16:28:06.577Z,8.50
2022-10-19T16:31:48.440Z,8.00
2022-10-19T16:35:30.290Z,4.57
2022-10-19T16:39:12.229Z,8.65
2022-10-19T16:42:56.820Z,8.32
2022-10-19T16:46:39.307Z,10.35
2022-10-19T16:50:21.175Z,8.10
2022-10-19T16:54:04.645Z,6.72
2022-10-19T16:57:46.418Z,4.93
2022-10-19T17:01:29.344Z,8.73
2022-10-19T17:05:11.192Z,6.53
2022-10-19T17:12:56.899Z,10.00
2022-10-19T17:16:39.147Z,6.90
2022-10-19T17:20:21.046Z,8.35
2022-10-19T17:24:03.285Z,9.60
2022-10-19T17:27:45.124Z,8.05
2022-10-19T17:31:28.091Z,9.57
2022-10-19T17:35:10.131Z,8.77
2022-10-19T17:38:57.283Z,11.60
2022-10-19T17:42:39.088Z,10.77
2022-10-19T17:46:24.700Z,9.20
2022-10-19T17:50:06.879Z,11.90
2022-10-19T17:53:49.519Z,11.63
2022-10-19T17:57:31.374Z,11.38
2022-10-19T18:01:14.236Z,15.23
2022-10-19T18:04:56.041Z,10.38
2022-10-19T18:08:43.163Z,11.52
2022-10-19T18:12:25.014Z,10.93
2022-10-19T18:16:14.849Z,12.45
2022-10-19T18:19:56.711Z,7.80
2022-10-19T18:23:38.892Z,12.50
2022-10-19T18:27:20.706Z,12.52
2022-10-19T18:31:14.126Z,10.35
2022-10-19T18:34:55.935Z,12.32
2022-10-19T18:38:38.748Z,12.43
2022-10-19T18:42:20.566Z,11.48
2022-10-19T18:46:02.483Z,10.90
2022-10-19T18:49:44.386Z,13.65
2022-10-19T18:53:26.192Z,9.52
2022-10-19T18:57:08.006Z,11.35
2022-10-19T19:00:49.835Z,14.98
2022-10-19T19:04:31.654Z,9.98
2022-10-19T19:08:13.527Z,12.07
2022-10-19T19:11:58.073Z,14.20
2022-10-19T19:15:39.904Z,12.13
2022-10-19T19:19:24.403Z,12.93
2022-10-19T19:23:06.277Z,11.32
2022-10-19T19:26:55.005Z,13.07
2022-10-19T19:30:44.990Z,12.80
2022-10-19T19:34:26.914Z,12.73
2022-10-19T19:38:08.795Z,14.65
2022-10-19T19:41:50.713Z,13.15
2022-10-19T19:45:32.620Z,11.27
2022-10-19T19:49:14.861Z,13.55
2022-10-19T19:53:00.218Z,16.58
2022-10-19T19:56:42.690Z,15.63
2022-10-19T20:00:25.679Z,12.43
2022-10-19T20:04:07.639Z,16.38
2022-10-19T20:07:50.527Z,12.18
2022-10-19T20:11:32.687Z,16.75
2022-10-19T20:15:16.620Z,17.95
2022-10-19T20:19:14.664Z,15.98
2022-10-19T20:22:57.226Z,13.10
2022-10-19T20:26:39.804Z,16.70
2022-10-19T20:30:21.724Z,17.75
2022-10-19T20:34:08.161Z,17.67
2022-10-19T20:37:52.973Z,20.70
2022-10-19T20:41:36.477Z,15.48
2022-10-19T20:45:18.489Z,15.60
2022-10-19T20:49:01.952Z,18.73
2022-10-19T20:52:43.787Z,15.98
2022-10-19T20:56:29.646Z,18.40
2022-10-19T21:00:12.131Z,17.17
2022-10-19T21:03:59.281Z,21.75
2022-10-19T21:07:41.142Z,19.98
2022-10-19T21:11:31.525Z,18.05
2022-10-19T21:15:13.368Z,20.33
2022-10-19T21:18:55.860Z,18.15
2022-10-19T21:22:40.050Z,21.20
2022-10-19T21:26:24.551Z,19.52
2022-10-19T21:30:06.918Z,24.63
2022-10-19T21:33:49.551Z,17.10
2022-10-19T21:37:31.371Z,16.48
2022-10-19T21:41:15.947Z,21.48
2022-10-19T21:45:06.247Z,19.85
2022-10-19T21:48:55.198Z,23.15
2022-10-19T21:52:37.027Z,18.30
2022-10-19T21:56:19.153Z,23.02
2022-10-19T22:00:01.015Z,21.00
2022-10-19T22:03:42.962Z,19.02
2022-10-19T22:07:24.798Z,18.40
2022-10-19T22:11:08.785Z,18.52
2022-10-19T22:14:50.689Z,18.40
2022-10-19T22:18:33.225Z,18.70
2022-10-19T22:22:15.076Z,24.85
2022-10-19T22:25:57.119Z,17.58
2022-10-19T22:29:39.002Z,16.52
2022-10-19T22:33:21.078Z,21.70
2022-10-19T22:37:02.900Z,15.50
2022-10-19T22:41:22.798Z,21.25
2022-10-19T22:45:05.154Z,21.55
2022-10-19T22:48:47.004Z,22.08
2022-10-19T22:52:28.924Z,25.83
2022-10-19T22:56:14.009Z,23.45
2022-10-19T22:59:55.838Z,17.65
2022-10-19T23:03:40.394Z,21.33
2022-10-19T23:07:22.239Z,19.85
2022-10-19T23:11:04.747Z,18.05
2022-10-19T23:14:46.585Z,19.15
2022-10-19T23:18:32.006Z,20.77
2022-10-19T23:22:13.866Z,19.80
2022-10-19T23:26:17.958Z,18.92
2022-10-19T23:29:59.843Z,18.00
2022-10-19T23:33:42.951Z,21.40
2022-10-19T23:37:24.822Z,20.98
2022-10-19T23:41:07.203Z,22.38
2022-10-19T23:44:49.025Z,16.25
2022-10-19T23:48:30.874Z,16.45
2022-10-19T23:52:12.679Z,19.73
2022-10-19T23:56:07.029Z,20.13
2022-10-19T23:59:48.825Z,22.08
